sensor_id;sensor_type;location;lat;lon;timestamp;P1;durP1;ratioP1;P2;durP2;ratioP2
80623;SDS011;70269;44.768;9.600;2023-07-20T00:00:49;11.55;;;4.60;;
80623;SDS011;70269;44.768;9.600;2023-07-20T00:03:18;11.10;;;4.82;;
80623;SDS011;70269;44.768;9.600;2023-07-20T00:05:48;12.70;;;4.85;;
80623;SDS011;70269;44.768;9.600;2023-07-20T00:08:15;13.65;;;5.47;;
80623;SDS011;70269;44.768;9.600;2023-07-20T00:10:43;11.68;;;5.00;;
80623;SDS011;70269;44.768;9.600;2023-07-20T00:13:09;11.07;;;4.82;;
80623;SDS011;70269;44.768;9.600;2023-07-20T00:15:36;10.95;;;4.57;;
80623;SDS011;70269;44.768;9.600;2023-07-20T00:18:03;13.23;;;4.70;;
80623;SDS011;70269;44.768;9.600;2023-07-20T00:20:29;11.63;;;4.82;;
80623;SDS011;70269;44.768;9.600;2023-07-20T00:22:54;14.52;;;4.72;;
80623;SDS011;70269;44.768;9.600;2023-07-20T00:25:22;12.35;;;5.05;;
80623;SDS011;70269;44.768;9.600;2023-07-20T00:27:48;9.85;;;5.00;;
80623;SDS011;70269;44.768;9.600;2023-07-20T00:30:14;9.68;;;4.63;;
80623;SDS011;70269;44.768;9.600;2023-07-20T00:32:41;12.88;;;4.97;;
80623;SDS011;70269;44.768;9.600;2023-07-20T00:35:07;10.43;;;5.20;;
80623;SDS011;70269;44.768;9.600;2023-07-20T00:37:33;12.65;;;4.93;;
80623;SDS011;70269;44.768;9.600;2023-07-20T00:39:59;11.85;;;4.72;;
80623;SDS011;70269;44.768;9.600;2023-07-20T00:42:25;9.90;;;4.65;;
80623;SDS011;70269;44.768;9.600;2023-07-20T00:44:51;12.43;;;4.90;;
80623;SDS011;70269;44.768;9.600;2023-07-20T00:47:16;12.75;;;4.88;;
80623;SDS011;70269;44.768;9.600;2023-07-20T00:49:42;15.77;;;5.07;;
80623;SDS011;70269;44.768;9.600;2023-07-20T00:52:08;10.52;;;5.20;;
80623;SDS011;70269;44.768;9.600;2023-07-20T00:54:38;11.20;;;5.18;;
80623;SDS011;70269;44.768;9.600;2023-07-20T00:57:04;14.95;;;5.45;;
80623;SDS011;70269;44.768;9.600;2023-07-20T00:59:32;12.48;;;4.88;;
80623;SDS011;70269;44.768;9.600;2023-07-20T01:01:59;12.63;;;4.82;;
80623;SDS011;70269;44.768;9.600;2023-07-20T01:04:24;11.70;;;5.65;;
80623;SDS011;70269;44.768;9.600;2023-07-20T01:06:54;12.32;;;5.93;;
80623;SDS011;70269;44.768;9.600;2023-07-20T01:09:28;12.85;;;5.57;;
80623;SDS011;70269;44.768;9.600;2023-07-20T01:12:11;9.98;;;4.60;;
80623;SDS011;70269;44.768;9.600;2023-07-20T01:14:43;10.55;;;4.93;;
80623;SDS011;70269;44.768;9.600;2023-07-20T01:17:10;11.65;;;4.78;;
80623;SDS011;70269;44.768;9.600;2023-07-20T01:19:35;11.82;;;4.75;;
80623;SDS011;70269;44.768;9.600;2023-07-20T01:32:55;10.18;;;5.15;;
80623;SDS011;70269;44.768;9.600;2023-07-20T01:35:23;12.20;;;4.93;;
80623;SDS011;70269;44.768;9.600;2023-07-20T01:37:53;14.35;;;5.20;;
80623;SDS011;70269;44.768;9.600;2023-07-20T01:40:20;13.25;;;5.82;;
80623;SDS011;70269;44.768;9.600;2023-07-20T01:42:48;8.90;;;4.55;;
80623;SDS011;70269;44.768;9.600;2023-07-20T01:45:14;9.55;;;5.15;;
80623;SDS011;70269;44.768;9.600;2023-07-20T01:47:40;12.10;;;4.95;;
80623;SDS011;70269;44.768;9.600;2023-07-20T01:50:06;11.80;;;5.13;;
80623;SDS011;70269;44.768;9.600;2023-07-20T01:52:32;10.13;;;5.00;;
80623;SDS011;70269;44.768;9.600;2023-07-20T01:54:57;9.40;;;4.70;;
80623;SDS011;70269;44.768;9.600;2023-07-20T01:57:23;11.07;;;4.97;;
80623;SDS011;70269;44.768;9.600;2023-07-20T01:59:48;10.27;;;5.22;;
80623;SDS011;70269;44.768;9.600;2023-07-20T02:02:14;13.13;;;5.55;;
80623;SDS011;70269;44.768;9.600;2023-07-20T02:04:39;9.48;;;5.13;;
80623;SDS011;70269;44.768;9.600;2023-07-20T02:07:05;12.98;;;4.57;;
80623;SDS011;70269;44.768;9.600;2023-07-20T02:09:31;11.18;;;5.57;;
80623;SDS011;70269;44.768;9.600;2023-07-20T02:11:57;13.25;;;4.43;;
80623;SDS011;70269;44.768;9.600;2023-07-20T02:14:22;13.93;;;5.13;;
80623;SDS011;70269;44.768;9.600;2023-07-20T02:16:48;11.30;;;5.35;;
80623;SDS011;70269;44.768;9.600;2023-07-20T02:19:19;11.32;;;5.20;;
80623;SDS011;70269;44.768;9.600;2023-07-20T02:21:44;12.95;;;5.90;;
80623;SDS011;70269;44.768;9.600;2023-07-20T02:24:10;11.45;;;5.25;;
80623;SDS011;70269;44.768;9.600;2023-07-20T02:26:37;11.18;;;5.28;;
80623;SDS011;70269;44.768;9.600;2023-07-20T02:29:02;11.80;;;5.85;;
80623;SDS011;70269;44.768;9.600;2023-07-20T02:31:30;10.52;;;5.05;;
80623;SDS011;70269;44.768;9.600;2023-07-20T02:33:55;11.88;;;5.30;;
80623;SDS011;70269;44.768;9.600;2023-07-20T02:36:21;10.63;;;4.63;;
80623;SDS011;70269;44.768;9.600;2023-07-20T02:38:46;13.85;;;6.13;;
80623;SDS011;70269;44.768;9.600;2023-07-20T02:41:13;12.10;;;5.68;;
80623;SDS011;70269;44.768;9.600;2023-07-20T02:43:39;9.82;;;5.85;;
80623;SDS011;70269;44.768;9.600;2023-07-20T02:46:05;12.85;;;5.70;;
80623;SDS011;70269;44.768;9.600;2023-07-20T02:48:31;12.20;;;4.97;;
80623;SDS011;70269;44.768;9.600;2023-07-20T02:50:57;13.07;;;5.57;;
80623;SDS011;70269;44.768;9.600;2023-07-20T02:53:22;15.07;;;5.55;;
80623;SDS011;70269;44.768;9.600;2023-07-20T02:55:48;13.70;;;6.32;;
80623;SDS011;70269;44.768;9.600;2023-07-20T02:58:14;14.48;;;5.63;;
80623;SDS011;70269;44.768;9.600;2023-07-20T03:00:40;11.63;;;5.28;;
80623;SDS011;70269;44.768;9.600;2023-07-20T03:05:35;16.05;;;5.85;;
80623;SDS011;70269;44.768;9.600;2023-07-20T03:08:03;13.35;;;5.43;;
80623;SDS011;70269;44.768;9.600;2023-07-20T03:10:31;13.75;;;5.10;;
80623;SDS011;70269;44.768;9.600;2023-07-20T03:12:57;12.80;;;5.05;;
80623;SDS011;70269;44.768;9.600;2023-07-20T03:15:23;9.85;;;5.05;;
80623;SDS011;70269;44.768;9.600;2023-07-20T03:17:49;14.80;;;6.22;;
80623;SDS011;70269;44.768;9.600;2023-07-20T03:20:15;11.73;;;5.68;;
80623;SDS011;70269;44.768;9.600;2023-07-20T03:22:40;12.80;;;5.10;;
80623;SDS011;70269;44.768;9.600;2023-07-20T03:25:06;17.00;;;5.82;;
80623;SDS011;70269;44.768;9.600;2023-07-20T03:27:33;11.32;;;5.68;;
80623;SDS011;70269;44.768;9.600;2023-07-20T03:30:00;12.27;;;5.35;;
80623;SDS011;70269;44.768;9.600;2023-07-20T03:32:26;11.75;;;5.40;;
80623;SDS011;70269;44.768;9.600;2023-07-20T03:34:51;10.93;;;5.65;;
80623;SDS011;70269;44.768;9.600;2023-07-20T03:37:17;12.23;;;5.47;;
80623;SDS011;70269;44.768;9.600;2023-07-20T03:39:42;15.30;;;5.80;;
80623;SDS011;70269;44.768;9.600;2023-07-20T03:42:08;11.68;;;5.22;;
80623;SDS011;70269;44.768;9.600;2023-07-20T03:44:33;11.27;;;5.32;;
80623;SDS011;70269;44.768;9.600;2023-07-20T03:46:59;12.98;;;5.55;;
80623;SDS011;70269;44.768;9.600;2023-07-20T03:49:24;10.75;;;5.85;;
80623;SDS011;70269;44.768;9.600;2023-07-20T03:51:50;12.13;;;5.82;;
80623;SDS011;70269;44.768;9.600;2023-07-20T03:54:15;12.60;;;6.20;;
80623;SDS011;70269;44.768;9.600;2023-07-20T03:56:41;13.30;;;5.72;;
80623;SDS011;70269;44.768;9.600;2023-07-20T03:59:07;16.48;;;5.68;;
80623;SDS011;70269;44.768;9.600;2023-07-20T04:01:32;13.27;;;5.90;;
80623;SDS011;70269;44.768;9.600;2023-07-20T04:04:04;12.40;;;5.60;;
80623;SDS011;70269;44.768;9.600;2023-07-20T04:06:32;12.32;;;5.22;;
80623;SDS011;70269;44.768;9.600;2023-07-20T04:08:58;12.00;;;5.07;;
80623;SDS011;70269;44.768;9.600;2023-07-20T04:11:24;11.77;;;5.57;;
80623;SDS011;70269;44.768;9.600;2023-07-20T04:13:50;10.70;;;5.43;;
80623;SDS011;70269;44.768;9.600;2023-07-20T04:16:15;12.68;;;4.80;;
80623;SDS011;70269;44.768;9.600;2023-07-20T04:18:41;11.07;;;5.47;;
80623;SDS011;70269;44.768;9.600;2023-07-20T04:21:10;11.93;;;5.38;;
80623;SDS011;70269;44.768;9.600;2023-07-20T04:23:36;14.30;;;5.82;;
80623;SDS011;70269;44.768;9.600;2023-07-20T04:26:02;14.55;;;6.00;;
80623;SDS011;70269;44.768;9.600;2023-07-20T04:28:28;13.27;;;5.90;;
80623;SDS011;70269;44.768;9.600;2023-07-20T04:30:53;13.85;;;6.05;;
80623;SDS011;70269;44.768;9.600;2023-07-20T04:33:20;13.10;;;6.00;;
80623;SDS011;70269;44.768;9.600;2023-07-20T04:38:23;13.82;;;5.43;;
80623;SDS011;70269;44.768;9.600;2023-07-20T04:40:56;12.18;;;5.55;;
80623;SDS011;70269;44.768;9.600;2023-07-20T04:43:22;8.68;;;5.20;;
80623;SDS011;70269;44.768;9.600;2023-07-20T04:45:47;11.90;;;5.18;;
80623;SDS011;70269;44.768;9.600;2023-07-20T04:48:14;10.90;;;4.95;;
80623;SDS011;70269;44.768;9.600;2023-07-20T04:50:47;12.52;;;5.63;;
80623;SDS011;70269;44.768;9.600;2023-07-20T04:53:13;12.73;;;4.95;;
80623;SDS011;70269;44.768;9.600;2023-07-20T04:55:39;13.32;;;5.20;;
80623;SDS011;70269;44.768;9.600;2023-07-20T04:58:06;11.93;;;4.95;;
80623;SDS011;70269;44.768;9.600;2023-07-20T05:00:33;9.13;;;4.68;;
80623;SDS011;70269;44.768;9.600;2023-07-20T05:02:59;10.10;;;5.03;;
80623;SDS011;70269;44.768;9.600;2023-07-20T05:05:24;9.68;;;4.93;;
80623;SDS011;70269;44.768;9.600;2023-07-20T05:07:50;9.82;;;4.57;;
80623;SDS011;70269;44.768;9.600;2023-07-20T05:10:16;10.40;;;4.53;;
80623;SDS011;70269;44.768;9.600;2023-07-20T05:12:41;11.10;;;5.40;;
80623;SDS011;70269;44.768;9.600;2023-07-20T05:15:07;12.13;;;4.63;;
80623;SDS011;70269;44.768;9.600;2023-07-20T05:17:34;12.05;;;4.78;;
80623;SDS011;70269;44.768;9.600;2023-07-20T05:20:00;11.38;;;4.78;;
80623;SDS011;70269;44.768;9.600;2023-07-20T05:22:26;10.23;;;5.43;;
80623;SDS011;70269;44.768;9.600;2023-07-20T05:24:52;15.00;;;4.95;;
80623;SDS011;70269;44.768;9.600;2023-07-20T05:27:17;14.18;;;4.93;;
80623;SDS011;70269;44.768;9.600;2023-07-20T05:29:46;11.40;;;4.43;;
80623;SDS011;70269;44.768;9.600;2023-07-20T05:32:12;12.50;;;4.97;;
80623;SDS011;70269;44.768;9.600;2023-07-20T05:34:39;10.82;;;4.80;;
80623;SDS011;70269;44.768;9.600;2023-07-20T05:37:05;12.30;;;5.15;;
80623;SDS011;70269;44.768;9.600;2023-07-20T05:39:32;12.88;;;5.38;;
80623;SDS011;70269;44.768;9.600;2023-07-20T05:41:58;10.00;;;4.93;;
80623;SDS011;70269;44.768;9.600;2023-07-20T05:44:23;8.25;;;4.15;;
80623;SDS011;70269;44.768;9.600;2023-07-20T05:46:49;11.50;;;4.82;;
80623;SDS011;70269;44.768;9.600;2023-07-20T05:49:14;11.35;;;4.75;;
80623;SDS011;70269;44.768;9.600;2023-07-20T05:51:40;10.27;;;4.72;;
80623;SDS011;70269;44.768;9.600;2023-07-20T05:54:05;10.15;;;4.60;;
80623;SDS011;70269;44.768;9.600;2023-07-20T05:56:31;14.73;;;4.68;;
80623;SDS011;70269;44.768;9.600;2023-07-20T05:58:57;14.40;;;5.20;;
80623;SDS011;70269;44.768;9.600;2023-07-20T06:01:22;12.48;;;4.68;;
80623;SDS011;70269;44.768;9.600;2023-07-20T06:03:49;12.63;;;4.13;;
80623;SDS011;70269;44.768;9.600;2023-07-20T06:06:15;7.93;;;4.78;;
80623;SDS011;70269;44.768;9.600;2023-07-20T06:08:40;8.90;;;4.35;;
80623;SDS011;70269;44.768;9.600;2023-07-20T06:11:06;12.32;;;4.72;;
80623;SDS011;70269;44.768;9.600;2023-07-20T06:13:31;10.90;;;4.75;;
80623;SDS011;70269;44.768;9.600;2023-07-20T06:15:57;14.85;;;5.22;;
80623;SDS011;70269;44.768;9.600;2023-07-20T06:18:22;9.20;;;5.10;;
80623;SDS011;70269;44.768;9.600;2023-07-20T06:20:51;12.15;;;5.45;;
80623;SDS011;70269;44.768;9.600;2023-07-20T06:23:20;12.65;;;5.18;;
80623;SDS011;70269;44.768;9.600;2023-07-20T06:25:46;8.93;;;4.30;;
80623;SDS011;70269;44.768;9.600;2023-07-20T06:28:13;10.52;;;5.30;;
80623;SDS011;70269;44.768;9.600;2023-07-20T06:30:38;13.00;;;4.65;;
80623;SDS011;70269;44.768;9.600;2023-07-20T06:33:04;11.02;;;4.30;;
80623;SDS011;70269;44.768;9.600;2023-07-20T06:35:29;12.18;;;5.40;;
80623;SDS011;70269;44.768;9.600;2023-07-20T06:37:55;10.48;;;4.93;;
80623;SDS011;70269;44.768;9.600;2023-07-20T06:40:20;9.80;;;4.38;;
80623;SDS011;70269;44.768;9.600;2023-07-20T06:42:46;11.77;;;4.50;;
80623;SDS011;70269;44.768;9.600;2023-07-20T06:45:12;10.85;;;4.68;;
80623;SDS011;70269;44.768;9.600;2023-07-20T06:47:39;12.02;;;4.63;;
80623;SDS011;70269;44.768;9.600;2023-07-20T06:50:08;11.00;;;4.68;;
80623;SDS011;70269;44.768;9.600;2023-07-20T06:52:34;11.07;;;4.72;;
80623;SDS011;70269;44.768;9.600;2023-07-20T06:55:00;13.52;;;4.53;;
80623;SDS011;70269;44.768;9.600;2023-07-20T06:57:25;11.80;;;4.63;;
80623;SDS011;70269;44.768;9.600;2023-07-20T06:59:51;13.88;;;4.38;;
80623;SDS011;70269;44.768;9.600;2023-07-20T07:02:16;11.73;;;5.18;;
80623;SDS011;70269;44.768;9.600;2023-07-20T07:04:42;17.67;;;5.45;;
80623;SDS011;70269;44.768;9.600;2023-07-20T07:07:08;12.18;;;4.20;;
80623;SDS011;70269;44.768;9.600;2023-07-20T07:09:35;12.43;;;4.88;;
80623;SDS011;70269;44.768;9.600;2023-07-20T07:12:00;12.38;;;4.90;;
80623;SDS011;70269;44.768;9.600;2023-07-20T07:14:26;12.57;;;5.05;;
80623;SDS011;70269;44.768;9.600;2023-07-20T07:16:51;9.45;;;5.03;;
80623;SDS011;70269;44.768;9.600;2023-07-20T07:19:17;12.20;;;4.72;;
80623;SDS011;70269;44.768;9.600;2023-07-20T07:21:43;9.10;;;4.70;;
80623;SDS011;70269;44.768;9.600;2023-07-20T07:24:08;10.77;;;4.10;;
80623;SDS011;70269;44.768;9.600;2023-07-20T07:26:35;13.63;;;6.00;;
80623;SDS011;70269;44.768;9.600;2023-07-20T07:29:04;11.98;;;4.80;;
80623;SDS011;70269;44.768;9.600;2023-07-20T07:31:29;10.55;;;4.90;;
80623;SDS011;70269;44.768;9.600;2023-07-20T07:33:56;12.15;;;4.85;;
80623;SDS011;70269;44.768;9.600;2023-07-20T07:36:22;11.35;;;4.60;;
80623;SDS011;70269;44.768;9.600;2023-07-20T07:38:49;10.48;;;5.32;;
80623;SDS011;70269;44.768;9.600;2023-07-20T07:41:15;14.05;;;5.20;;
80623;SDS011;70269;44.768;9.600;2023-07-20T07:43:41;15.60;;;6.03;;
80623;SDS011;70269;44.768;9.600;2023-07-20T07:46:06;12.38;;;4.72;;
80623;SDS011;70269;44.768;9.600;2023-07-20T07:48:32;13.23;;;5.43;;
80623;SDS011;70269;44.768;9.600;2023-07-20T07:50:58;10.85;;;4.50;;
80623;SDS011;70269;44.768;9.600;2023-07-20T07:53:23;10.45;;;4.63;;
80623;SDS011;70269;44.768;9.600;2023-07-20T07:58:16;12.43;;;5.80;;
80623;SDS011;70269;44.768;9.600;2023-07-20T08:00:42;11.48;;;4.80;;
80623;SDS011;70269;44.768;9.600;2023-07-20T08:03:09;13.05;;;4.53;;
80623;SDS011;70269;44.768;9.600;2023-07-20T08:05:35;10.40;;;4.78;;
80623;SDS011;70269;44.768;9.600;2023-07-20T08:08:01;13.82;;;5.28;;
80623;SDS011;70269;44.768;9.600;2023-07-20T08:10:29;11.77;;;4.25;;
80623;SDS011;70269;44.768;9.600;2023-07-20T08:12:54;11.80;;;5.63;;
80623;SDS011;70269;44.768;9.600;2023-07-20T08:15:20;9.25;;;5.40;;
80623;SDS011;70269;44.768;9.600;2023-07-20T08:17:45;11.73;;;5.15;;
80623;SDS011;70269;44.768;9.600;2023-07-20T08:20:12;12.70;;;4.78;;
80623;SDS011;70269;44.768;9.600;2023-07-20T08:22:39;10.05;;;4.68;;
80623;SDS011;70269;44.768;9.600;2023-07-20T08:25:05;12.48;;;5.78;;
80623;SDS011;70269;44.768;9.600;2023-07-20T08:27:31;10.50;;;4.72;;
80623;SDS011;70269;44.768;9.600;2023-07-20T08:29:57;13.07;;;5.22;;
80623;SDS011;70269;44.768;9.600;2023-07-20T08:32:22;9.88;;;4.35;;
80623;SDS011;70269;44.768;9.600;2023-07-20T08:34:48;12.90;;;4.82;;
80623;SDS011;70269;44.768;9.600;2023-07-20T08:37:13;15.23;;;5.03;;
80623;SDS011;70269;44.768;9.600;2023-07-20T08:39:39;16.73;;;5.90;;
80623;SDS011;70269;44.768;9.600;2023-07-20T08:42:05;11.05;;;4.75;;
80623;SDS011;70269;44.768;9.600;2023-07-20T08:44:34;9.57;;;4.75;;
80623;SDS011;70269;44.768;9.600;2023-07-20T08:47:01;12.48;;;5.50;;
80623;SDS011;70269;44.768;9.600;2023-07-20T08:51:54;11.07;;;4.95;;
80623;SDS011;70269;44.768;9.600;2023-07-20T08:54:20;11.02;;;5.05;;
80623;SDS011;70269;44.768;9.600;2023-07-20T08:56:46;12.77;;;4.28;;
80623;SDS011;70269;44.768;9.600;2023-07-20T08:59:12;10.60;;;4.60;;
80623;SDS011;70269;44.768;9.600;2023-07-20T09:01:41;11.30;;;4.95;;
80623;SDS011;70269;44.768;9.600;2023-07-20T09:04:09;8.27;;;4.45;;
80623;SDS011;70269;44.768;9.600;2023-07-20T09:06:35;11.07;;;4.72;;
80623;SDS011;70269;44.768;9.600;2023-07-20T09:09:00;9.20;;;5.13;;
80623;SDS011;70269;44.768;9.600;2023-07-20T09:11:26;9.80;;;4.60;;
80623;SDS011;70269;44.768;9.600;2023-07-20T09:14:07;14.65;;;5.30;;
80623;SDS011;70269;44.768;9.600;2023-07-20T09:16:53;12.32;;;4.40;;
80623;SDS011;70269;44.768;9.600;2023-07-20T09:19:20;14.82;;;5.65;;
80623;SDS011;70269;44.768;9.600;2023-07-20T09:21:46;12.73;;;4.93;;
80623;SDS011;70269;44.768;9.600;2023-07-20T09:24:13;10.48;;;4.80;;
80623;SDS011;70269;44.768;9.600;2023-07-20T09:26:40;11.90;;;4.68;;
80623;SDS011;70269;44.768;9.600;2023-07-20T09:29:07;10.45;;;5.15;;
80623;SDS011;70269;44.768;9.600;2023-07-20T09:31:34;10.30;;;4.55;;
80623;SDS011;70269;44.768;9.600;2023-07-20T09:34:00;9.57;;;4.70;;
80623;SDS011;70269;44.768;9.600;2023-07-20T09:36:28;9.48;;;4.60;;
80623;SDS011;70269;44.768;9.600;2023-07-20T09:38:54;13.23;;;5.35;;
80623;SDS011;70269;44.768;9.600;2023-07-20T09:41:21;12.43;;;5.15;;
80623;SDS011;70269;44.768;9.600;2023-07-20T09:43:46;10.02;;;4.60;;
80623;SDS011;70269;44.768;9.600;2023-07-20T09:46:12;10.45;;;4.93;;
80623;SDS011;70269;44.768;9.600;2023-07-20T09:48:39;8.07;;;4.80;;
80623;SDS011;70269;44.768;9.600;2023-07-20T09:51:04;9.75;;;4.45;;
80623;SDS011;70269;44.768;9.600;2023-07-20T09:53:32;11.77;;;4.97;;
80623;SDS011;70269;44.768;9.600;2023-07-20T09:55:59;11.48;;;4.47;;
80623;SDS011;70269;44.768;9.600;2023-07-20T09:58:28;10.43;;;4.45;;
80623;SDS011;70269;44.768;9.600;2023-07-20T10:00:57;7.32;;;4.28;;
80623;SDS011;70269;44.768;9.600;2023-07-20T10:03:28;11.75;;;4.88;;
80623;SDS011;70269;44.768;9.600;2023-07-20T10:06:00;9.85;;;4.53;;
80623;SDS011;70269;44.768;9.600;2023-07-20T10:08:33;8.23;;;4.38;;
80623;SDS011;70269;44.768;9.600;2023-07-20T10:11:05;11.80;;;4.47;;
80623;SDS011;70269;44.768;9.600;2023-07-20T10:13:32;9.52;;;4.25;;
80623;SDS011;70269;44.768;9.600;2023-07-20T10:16:14;8.93;;;4.13;;
80623;SDS011;70269;44.768;9.600;2023-07-20T10:19:02;10.35;;;4.00;;
80623;SDS011;70269;44.768;9.600;2023-07-20T10:21:31;9.98;;;4.53;;
80623;SDS011;70269;44.768;9.600;2023-07-20T10:24:05;9.05;;;4.53;;
80623;SDS011;70269;44.768;9.600;2023-07-20T10:26:32;8.98;;;3.88;;
80623;SDS011;70269;44.768;9.600;2023-07-20T10:28:58;8.60;;;4.10;;
80623;SDS011;70269;44.768;9.600;2023-07-20T10:31:24;9.73;;;4.00;;
80623;SDS011;70269;44.768;9.600;2023-07-20T10:33:55;9.20;;;4.00;;
80623;SDS011;70269;44.768;9.600;2023-07-20T10:36:25;9.45;;;4.32;;
80623;SDS011;70269;44.768;9.600;2023-07-20T10:38:53;11.10;;;4.18;;
80623;SDS011;70269;44.768;9.600;2023-07-20T10:41:21;9.50;;;4.20;;
80623;SDS011;70269;44.768;9.600;2023-07-20T10:43:55;8.75;;;4.55;;
80623;SDS011;70269;44.768;9.600;2023-07-20T10:46:44;8.63;;;4.43;;
80623;SDS011;70269;44.768;9.600;2023-07-20T10:49:11;6.78;;;4.00;;
80623;SDS011;70269;44.768;9.600;2023-07-20T10:51:39;9.43;;;4.45;;
80623;SDS011;70269;44.768;9.600;2023-07-20T10:54:54;8.68;;;3.97;;
80623;SDS011;70269;44.768;9.600;2023-07-20T10:56:55;11.90;;;3.92;;
80623;SDS011;70269;44.768;9.600;2023-07-20T11:01:50;10.20;;;3.78;;
80623;SDS011;70269;44.768;9.600;2023-07-20T11:04:42;8.50;;;3.72;;
80623;SDS011;70269;44.768;9.600;2023-07-20T11:07:09;6.60;;;3.50;;
80623;SDS011;70269;44.768;9.600;2023-07-20T11:09:36;6.70;;;3.42;;
80623;SDS011;70269;44.768;9.600;2023-07-20T11:12:35;8.38;;;3.55;;
80623;SDS011;70269;44.768;9.600;2023-07-20T11:14:54;8.48;;;3.70;;
80623;SDS011;70269;44.768;9.600;2023-07-20T11:17:28;8.23;;;3.50;;
80623;SDS011;70269;44.768;9.600;2023-07-20T11:19:58;7.32;;;3.30;;
80623;SDS011;70269;44.768;9.600;2023-07-20T11:22:26;7.68;;;3.17;;
80623;SDS011;70269;44.768;9.600;2023-07-20T11:24:55;6.88;;;3.20;;
80623;SDS011;70269;44.768;9.600;2023-07-20T11:27:21;8.55;;;3.67;;
80623;SDS011;70269;44.768;9.600;2023-07-20T11:29:47;9.95;;;4.40;;
80623;SDS011;70269;44.768;9.600;2023-07-20T11:32:20;8.43;;;3.38;;
80623;SDS011;70269;44.768;9.600;2023-07-20T11:34:47;13.07;;;4.38;;
80623;SDS011;70269;44.768;9.600;2023-07-20T11:37:12;8.32;;;4.20;;
80623;SDS011;70269;44.768;9.600;2023-07-20T11:39:38;9.60;;;3.47;;
80623;SDS011;70269;44.768;9.600;2023-07-20T11:42:05;7.35;;;3.63;;
80623;SDS011;70269;44.768;9.600;2023-07-20T11:44:31;8.57;;;3.88;;
80623;SDS011;70269;44.768;9.600;2023-07-20T11:47:04;6.07;;;3.35;;
80623;SDS011;70269;44.768;9.600;2023-07-20T11:49:30;9.00;;;3.33;;
80623;SDS011;70269;44.768;9.600;2023-07-20T11:52:09;9.55;;;3.95;;
80623;SDS011;70269;44.768;9.600;2023-07-20T11:54:37;11.80;;;4.10;;
80623;SDS011;70269;44.768;9.600;2023-07-20T11:57:04;7.95;;;3.60;;
80623;SDS011;70269;44.768;9.600;2023-07-20T11:59:33;10.23;;;3.45;;
80623;SDS011;70269;44.768;9.600;2023-07-20T12:02:02;6.80;;;3.10;;
80623;SDS011;70269;44.768;9.600;2023-07-20T12:04:28;7.38;;;3.67;;
80623;SDS011;70269;44.768;9.600;2023-07-20T12:06:56;8.73;;;3.80;;
80623;SDS011;70269;44.768;9.600;2023-07-20T12:09:22;7.68;;;3.05;;
80623;SDS011;70269;44.768;9.600;2023-07-20T12:11:48;8.75;;;3.45;;
80623;SDS011;70269;44.768;9.600;2023-07-20T12:14:15;7.50;;;4.05;;
80623;SDS011;70269;44.768;9.600;2023-07-20T12:16:42;9.98;;;3.55;;
80623;SDS011;70269;44.768;9.600;2023-07-20T12:21:35;8.75;;;3.40;;
80623;SDS011;70269;44.768;9.600;2023-07-20T12:24:05;5.85;;;3.38;;
80623;SDS011;70269;44.768;9.600;2023-07-20T12:26:32;7.40;;;3.75;;
80623;SDS011;70269;44.768;9.600;2023-07-20T12:28:58;8.80;;;3.50;;
80623;SDS011;70269;44.768;9.600;2023-07-20T12:31:25;7.75;;;3.50;;
80623;SDS011;70269;44.768;9.600;2023-07-20T12:33:52;8.65;;;3.33;;
80623;SDS011;70269;44.768;9.600;2023-07-20T12:36:20;6.28;;;3.33;;
80623;SDS011;70269;44.768;9.600;2023-07-20T12:38:46;11.05;;;4.25;;
80623;SDS011;70269;44.768;9.600;2023-07-20T12:41:12;8.30;;;3.65;;
80623;SDS011;70269;44.768;9.600;2023-07-20T12:43:39;7.90;;;3.53;;
80623;SDS011;70269;44.768;9.600;2023-07-20T12:46:07;11.80;;;3.80;;
80623;SDS011;70269;44.768;9.600;2023-07-20T12:48:33;6.78;;;3.60;;
80623;SDS011;70269;44.768;9.600;2023-07-20T12:51:02;8.40;;;3.60;;
80623;SDS011;70269;44.768;9.600;2023-07-20T12:53:28;9.57;;;3.55;;
80623;SDS011;70269;44.768;9.600;2023-07-20T12:55:53;8.75;;;3.33;;
80623;SDS011;70269;44.768;9.600;2023-07-20T12:58:19;5.82;;;3.13;;
80623;SDS011;70269;44.768;9.600;2023-07-20T13:00:44;7.38;;;3.78;;
80623;SDS011;70269;44.768;9.600;2023-07-20T13:03:10;8.27;;;3.58;;
80623;SDS011;70269;44.768;9.600;2023-07-20T13:05:35;8.60;;;3.90;;
80623;SDS011;70269;44.768;9.600;2023-07-20T13:08:01;9.23;;;3.92;;
80623;SDS011;70269;44.768;9.600;2023-07-20T13:10:28;9.23;;;4.07;;
80623;SDS011;70269;44.768;9.600;2023-07-20T13:12:54;7.80;;;3.90;;
80623;SDS011;70269;44.768;9.600;2023-07-20T13:15:20;6.20;;;3.60;;
80623;SDS011;70269;44.768;9.600;2023-07-20T13:17:46;8.32;;;3.63;;
80623;SDS011;70269;44.768;9.600;2023-07-20T13:20:11;11.25;;;3.75;;
80623;SDS011;70269;44.768;9.600;2023-07-20T13:22:40;6.85;;;3.60;;
80623;SDS011;70269;44.768;9.600;2023-07-20T13:25:06;7.50;;;3.75;;
80623;SDS011;70269;44.768;9.600;2023-07-20T13:27:33;8.80;;;3.80;;
80623;SDS011;70269;44.768;9.600;2023-07-20T13:30:00;7.25;;;3.70;;
80623;SDS011;70269;44.768;9.600;2023-07-20T13:32:26;7.95;;;3.38;;
80623;SDS011;70269;44.768;9.600;2023-07-20T13:34:52;7.47;;;3.90;;
80623;SDS011;70269;44.768;9.600;2023-07-20T13:37:18;6.75;;;3.58;;
80623;SDS011;70269;44.768;9.600;2023-07-20T13:39:43;8.80;;;4.00;;
80623;SDS011;70269;44.768;9.600;2023-07-20T13:42:09;7.65;;;3.78;;
80623;SDS011;70269;44.768;9.600;2023-07-20T13:44:37;6.40;;;3.95;;
80623;SDS011;70269;44.768;9.600;2023-07-20T13:47:03;8.73;;;3.80;;
80623;SDS011;70269;44.768;9.600;2023-07-20T13:49:30;9.82;;;4.57;;
80623;SDS011;70269;44.768;9.600;2023-07-20T13:51:56;7.97;;;3.90;;
80623;SDS011;70269;44.768;9.600;2023-07-20T13:54:22;10.07;;;3.67;;
80623;SDS011;70269;44.768;9.600;2023-07-20T13:56:48;8.65;;;4.38;;
80623;SDS011;70269;44.768;9.600;2023-07-20T13:59:14;9.73;;;3.67;;
80623;SDS011;70269;44.768;9.600;2023-07-20T14:01:40;7.80;;;3.75;;
80623;SDS011;70269;44.768;9.600;2023-07-20T14:04:05;10.77;;;4.40;;
80623;SDS011;70269;44.768;9.600;2023-07-20T14:06:31;7.90;;;3.75;;
80623;SDS011;70269;44.768;9.600;2023-07-20T14:08:58;9.40;;;3.90;;
80623;SDS011;70269;44.768;9.600;2023-07-20T14:11:24;8.32;;;3.75;;
80623;SDS011;70269;44.768;9.600;2023-07-20T14:13:51;10.85;;;4.05;;
80623;SDS011;70269;44.768;9.600;2023-07-20T14:16:18;9.88;;;4.53;;
80623;SDS011;70269;44.768;9.600;2023-07-20T14:18:47;7.53;;;4.25;;
80623;SDS011;70269;44.768;9.600;2023-07-20T14:21:14;9.82;;;4.45;;
80623;SDS011;70269;44.768;9.600;2023-07-20T14:23:40;9.90;;;4.55;;
80623;SDS011;70269;44.768;9.600;2023-07-20T14:26:05;8.75;;;4.25;;
80623;SDS011;70269;44.768;9.600;2023-07-20T14:28:32;8.40;;;3.95;;
80623;SDS011;70269;44.768;9.600;2023-07-20T14:30:58;8.60;;;4.90;;
80623;SDS011;70269;44.768;9.600;2023-07-20T14:33:23;8.10;;;4.10;;
80623;SDS011;70269;44.768;9.600;2023-07-20T14:35:49;7.95;;;4.30;;
80623;SDS011;70269;44.768;9.600;2023-07-20T14:38:15;7.35;;;4.32;;
80623;SDS011;70269;44.768;9.600;2023-07-20T14:40:40;9.60;;;4.00;;
80623;SDS011;70269;44.768;9.600;2023-07-20T14:43:06;9.38;;;4.07;;
80623;SDS011;70269;44.768;9.600;2023-07-20T14:45:32;8.38;;;4.45;;
80623;SDS011;70269;44.768;9.600;2023-07-20T14:47:57;11.43;;;4.10;;
80623;SDS011;70269;44.768;9.600;2023-07-20T14:50:23;9.80;;;4.18;;
80623;SDS011;70269;44.768;9.600;2023-07-20T14:52:49;8.05;;;4.53;;
80623;SDS011;70269;44.768;9.600;2023-07-20T14:55:15;8.02;;;4.38;;
80623;SDS011;70269;44.768;9.600;2023-07-20T14:57:40;9.88;;;5.18;;
80623;SDS011;70269;44.768;9.600;2023-07-20T15:00:06;9.27;;;4.30;;
80623;SDS011;70269;44.768;9.600;2023-07-20T15:02:38;12.43;;;4.90;;
80623;SDS011;70269;44.768;9.600;2023-07-20T15:05:07;8.35;;;4.28;;